| time (UTC) | temp F | wind direction | speed knots | gust knots | rain 1hr in | rain 24hr in | rain mn in | humidity % | barometer mb |
| 20260510130023 | 55 | 79 | 0.0 | 0.0 | 0.00 | 0.00 | 0.00 | 84 | 1017.1 |
| 20260510124524 | 52 | 81 | 0.0 | 0.0 | 0.00 | 0.00 | 0.00 | 90 | 1017.0 |
| 20260510123009 | 49 | 103 | 0.0 | 0.0 | 0.00 | 0.00 | 0.00 | 95 | 1016.8 |
| 20260510121516 | 46 | 60 | 0.0 | 0.0 | 0.00 | 0.00 | 0.00 | 95 | 1016.8 |
| 20260510120027 | 43 | 77 | 0.0 | 0.0 | 0.00 | 0.00 | 0.00 | 94 | 1016.7 |
| 20260510114525 | 42 | 156 | 0.0 | 0.0 | 0.00 | 0.00 | 0.00 | 94 | 1016.9 |
| 20260510113024 | 42 | 155 | 0.0 | 0.0 | 0.00 | 0.00 | 0.00 | 94 | 1016.7 |
| 20260510111516 | 41 | 156 | 0.0 | 0.0 | 0.00 | 0.00 | 0.00 | 94 | 1016.4 |
| 20260510110021 | 41 | 156 | 0.0 | 0.0 | 0.00 | 0.00 | 0.00 | 94 | 1016.3 |
| 20260510104521 | 41 | 142 | 0.0 | 0.0 | 0.00 | 0.00 | 0.00 | 94 | 1016.0 |
| 20260510103024 | 41 | 142 | 0.0 | 0.0 | 0.00 | 0.00 | 0.00 | 94 | 1015.8 |
| 20260510101527 | 41 | 142 | 0.0 | 0.0 | 0.00 | 0.00 | 0.00 | 94 | 1015.9 |
| 20260510100016 | 42 | 142 | 0.0 | 0.0 | 0.00 | 0.00 | 0.00 | 94 | 1015.7 |
| 20260510094519 | 41 | 142 | 0.0 | 0.0 | 0.00 | 0.00 | 0.00 | 93 | 1015.6 |
| 20260510093024 | 42 | 142 | 0.0 | 0.0 | 0.00 | 0.00 | 0.00 | 93 | 1015.5 |
| 20260510091528 | 42 | 142 | 0.0 | 0.0 | 0.00 | 0.00 | 0.00 | 93 | 1015.1 |
| 20260510085959 | 42 | 142 | 0.0 | 0.0 | 0.00 | 0.00 | 0.00 | 93 | 1015.1 |
| 20260510084503 | 42 | 142 | 0.0 | 0.0 | 0.00 | 0.00 | 0.00 | 93 | 1015.0 |
| 20260510083005 | 42 | 104 | 0.0 | 0.0 | 0.00 | 0.00 | 0.00 | 93 | 1014.8 |
| 20260510081507 | 43 | 104 | 0.0 | 0.0 | 0.00 | 0.00 | 0.00 | 93 | 1014.8 |
| 20260510080004 | 43 | 104 | 0.0 | 0.0 | 0.00 | 0.00 | 0.00 | 93 | 1014.8 |
| 20260510074506 | 43 | 104 | 0.0 | 0.0 | 0.00 | 0.00 | 0.00 | 93 | 1014.6 |
| 20260510073007 | 43 | 156 | 0.0 | 0.0 | 0.00 | 0.00 | 0.00 | 93 | 1014.6 |
| 20260510071506 | 44 | 10 | 0.0 | 0.0 | 0.00 | 0.00 | 0.00 | 93 | 1014.4 |
| 20260510070006 | 44 | 10 | 0.0 | 0.0 | 0.00 | 0.00 | 0.00 | 92 | 1014.5 |
| 20260510064504 | 44 | 10 | 0.0 | 0.0 | 0.00 | 0.00 | 0.00 | 92 | 1014.4 |
| 20260510063006 | 44 | 10 | 0.0 | 0.0 | 0.00 | 0.00 | 0.00 | 92 | 1014.3 |
| 20260510061504 | 44 | 10 | 0.0 | 0.0 | 0.00 | 0.00 | 0.00 | 92 | 1014.2 |
| 20260510060015 | 45 | 10 | 0.0 | 0.0 | 0.00 | 0.00 | 0.00 | 91 | 1014.3 |
| 20260510054505 | 45 | 147 | 0.0 | 0.0 | 0.00 | 0.00 | 0.00 | 90 | 1014.3 |
| 20260510053013 | 45 | 134 | 0.0 | 0.0 | 0.00 | 0.00 | 0.00 | 90 | 1014.3 |
| 20260510051508 | 46 | 135 | 0.0 | 0.0 | 0.00 | 0.00 | 0.00 | 89 | 1014.2 |
| 20260510050004 | 46 | 1 | 0.0 | 0.0 | 0.00 | 0.00 | 0.00 | 88 | 1014.2 |
| 20260510044509 | 47 | 1 | 0.0 | 0.0 | 0.00 | 0.00 | 0.00 | 87 | 1014.3 |
| 20260510043012 | 47 | 1 | 0.0 | 0.0 | 0.00 | 0.00 | 0.00 | 86 | 1014.3 |
| 20260510041511 | 48 | 1 | 0.0 | 0.0 | 0.00 | 0.00 | 0.00 | 85 | 1014.2 |
| 20260510040016 | 48 | 1 | 0.0 | 0.0 | 0.00 | 0.00 | 0.00 | 84 | 1014.1 |
| 20260510034509 | 49 | 1 | 0.0 | 1.7 | 0.00 | 0.00 | 0.00 | 82 | 1014.3 |
| 20260510033013 | 49 | 360 | 0.0 | 1.7 | 0.00 | 0.00 | 0.00 | 82 | 1014.1 |
| 20260510031517 | 50 | 360 | 0.0 | 1.7 | 0.00 | 0.00 | 0.00 | 80 | 1014.3 |
| 20260510030016 | 51 | 1 | 0.0 | 4.3 | 0.00 | 0.00 | 0.00 | 77 | 1014.1 |
| 20260510024516 | 52 | 349 | 1.7 | 4.3 | 0.00 | 0.00 | 0.00 | 76 | 1013.7 |
| 20260510023008 | 52 | 29 | 0.9 | 3.5 | 0.00 | 0.00 | 0.00 | 76 | 1013.6 |
| 20260510021531 | 52 | 41 | 0.9 | 1.7 | 0.00 | 0.00 | 0.00 | 75 | 1013.5 |
| 20260510020018 | 54 | 6 | 1.7 | 5.2 | 0.00 | 0.00 | 0.00 | 72 | 1013.2 |
| 20260510014515 | 54 | 30 | 0.9 | 3.5 | 0.00 | 0.00 | 0.00 | 73 | 1013.0 |
| 20260510013017 | 54 | 4 | 0.0 | 2.6 | 0.00 | 0.00 | 0.00 | 73 | 1012.7 |
| 20260510011512 | 55 | 359 | 0.9 | 2.6 | 0.00 | 0.00 | 0.00 | 73 | 1012.5 |
| 20260510010017 | 55 | 350 | 0.0 | 0.0 | 0.00 | 0.00 | 0.00 | 72 | 1012.4 |
| 20260510004519 | 56 | 6 | 0.0 | 1.7 | 0.00 | 0.00 | 0.00 | 70 | 1012.1 |
| 20260510003020 | 57 | 11 | 0.0 | 1.7 | 0.00 | 0.00 | 0.00 | 67 | 1012.0 |
| 20260510001523 | 59 | 354 | 0.0 | 1.7 | 0.00 | 0.00 | 0.00 | 63 | 1011.7 |
| 20260510000020 | 61 | 75 | 0.0 | 0.9 | 0.00 | 0.00 | 0.00 | 60 | 1011.5 |
| 20260509234524 | 62 | 359 | 0.0 | 1.7 | 0.00 | 0.00 | 0.00 | 57 | 1011.2 |
| 20260509233022 | 64 | 326 | 0.0 | 1.7 | 0.00 | 0.00 | 0.00 | 52 | 1010.9 |
| 20260509231519 | 65 | 343 | 0.9 | 2.6 | 0.00 | 0.00 | 0.00 | 49 | 1011.0 |
| 20260509230020 | 67 | 305 | 0.0 | 1.7 | 0.00 | 0.00 | 0.00 | 45 | 1010.9 |
| 20260509224518 | 68 | 328 | 0.9 | 3.5 | 0.00 | 0.00 | 0.00 | 43 | 1011.1 |
| 20260509223025 | 69 | 54 | 0.9 | 6.1 | 0.00 | 0.00 | 0.00 | 40 | 1011.1 |
| 20260509221522 | 70 | 44 | 0.0 | 8.7 | 0.00 | 0.00 | 0.00 | 40 | 1011.1 |
| 20260509220022 | 71 | 108 | 1.7 | 4.3 | 0.00 | 0.00 | 0.00 | 39 | 1010.9 |
| 20260509214523 | 71 | 146 | 5.2 | 8.7 | 0.00 | 0.00 | 0.00 | 39 | 1010.8 |
| 20260509213004 | 71 | 196 | 3.5 | 8.7 | 0.00 | 0.00 | 0.00 | 39 | 1010.7 |
| 20260509211511 | 72 | 279 | 0.9 | 8.7 | 0.00 | 0.00 | 0.00 | 38 | 1010.5 |
| 20260509210011 | 73 | 151 | 5.2 | 8.7 | 0.00 | 0.00 | 0.00 | 37 | 1010.2 |
| 20260509204512 | 72 | 99 | 1.7 | 6.1 | 0.00 | 0.00 | 0.00 | 39 | 1010.3 |
| 20260509203002 | 72 | 178 | 2.6 | 6.1 | 0.00 | 0.00 | 0.00 | 40 | 1010.1 |
| 20260509201505 | 70 | 145 | 1.7 | 7.8 | 0.00 | 0.00 | 0.00 | 41 | 1010.1 |
| 20260509200006 | 71 | 141 | 1.7 | 14.8 | 0.00 | 0.00 | 0.00 | 38 | 1010.0 |
| 20260509194512 | 71 | 146 | 2.6 | 7.0 | 0.00 | 0.00 | 0.00 | 39 | 1010.1 |
| 20260509193016 | 73 | 143 | 3.5 | 7.8 | 0.00 | 0.00 | 0.00 | 35 | 1010.1 |
| 20260509191501 | 74 | 56 | 0.0 | 6.1 | 0.00 | 0.00 | 0.00 | 38 | 1010.1 |
| 20260509190006 | 71 | 179 | 1.7 | 5.2 | 0.00 | 0.00 | 0.00 | 42 | 1010.3 |
| 20260509184513 | 70 | 136 | 3.5 | 8.7 | 0.00 | 0.00 | 0.00 | 40 | 1010.5 |
| 20260509183015 | 74 | 131 | 6.1 | 8.7 | 0.00 | 0.00 | 0.00 | 38 | 1010.5 |
| 20260509181517 | 74 | 153 | 2.6 | 11.3 | 0.00 | 0.00 | 0.00 | 38 | 1010.4 |
| 20260509180005 | 74 | 87 | 2.6 | 7.0 | 0.00 | 0.00 | 0.00 | 36 | 1010.7 |
| 20260509174504 | 71 | 146 | 6.1 | 11.3 | 0.00 | 0.00 | 0.00 | 43 | 1010.9 |
| 20260509173012 | 70 | 50 | 2.6 | 5.2 | 0.00 | 0.00 | 0.00 | 40 | 1010.9 |
| 20260509171525 | 70 | 128 | 1.7 | 12.2 | 0.00 | 0.00 | 0.00 | 42 | 1011.1 |
| 20260509170027 | 69 | 127 | 4.3 | 13.0 | 0.00 | 0.00 | 0.00 | 42 | 1011.4 |
| 20260509164507 | 69 | 60 | 0.9 | 9.6 | 0.00 | 0.00 | 0.00 | 45 | 1011.6 |
| 20260509163014 | 68 | 126 | 5.2 | 10.4 | 0.00 | 0.00 | 0.00 | 48 | 1011.6 |
| 20260509161515 | 69 | 43 | 2.6 | 8.7 | 0.00 | 0.00 | 0.00 | 46 | 1011.4 |
| 20260509160022 | 71 | 33 | 2.6 | 7.8 | 0.00 | 0.00 | 0.00 | 43 | 1011.3 |
| 20260509154523 | 69 | 117 | 3.5 | 8.7 | 0.00 | 0.00 | 0.00 | 46 | 1011.5 |
| 20260509153006 | 68 | 130 | 2.6 | 6.1 | 0.00 | 0.00 | 0.00 | 45 | 1011.6 |
| 20260509151514 | 67 | 115 | 0.0 | 0.0 | 0.00 | 0.00 | 0.00 | 52 | 1011.7 |
| 20260509150030 | 66 | 109 | 0.0 | 0.0 | 0.00 | 0.00 | 0.00 | 53 | 1011.6 |
| 20260509144531 | 64 | 185 | 0.0 | 0.0 | 0.00 | 0.00 | 0.00 | 58 | 1011.9 |
| 20260509143024 | 62 | 129 | 0.0 | 0.0 | 0.00 | 0.00 | 0.00 | 59 | 1012.0 |
| 20260509141511 | 60 | 200 | 0.0 | 0.0 | 0.00 | 0.00 | 0.00 | 62 | 1012.1 |
| 20260509140014 | 57 | 101 | 0.0 | 0.0 | 0.00 | 0.00 | 0.00 | 68 | 1012.2 |
| 20260509134520 | 54 | 81 | 0.0 | 0.0 | 0.00 | 0.00 | 0.00 | 72 | 1011.9 |
| 20260509133026 | 52 | 161 | 0.0 | 0.0 | 0.00 | 0.00 | 0.00 | 76 | 1012.0 |
| 20260509131539 | 52 | 153 | 0.0 | 0.0 | 0.00 | 0.00 | 0.00 | 77 | 1012.7 |